sensor_id;sensor_type;location;lat;lon;timestamp;P1;durP1;ratioP1;P2;durP2;ratioP2
74945;SDS011;63509;45.250;38.102;2023-07-08T00:00:40;4.72;;;1.65;;
74945;SDS011;63509;45.250;38.102;2023-07-08T00:03:06;7.47;;;2.28;;
74945;SDS011;63509;45.250;38.102;2023-07-08T00:05:32;3.65;;;2.08;;
74945;SDS011;63509;45.250;38.102;2023-07-08T00:07:58;3.67;;;1.98;;
74945;SDS011;63509;45.250;38.102;2023-07-08T00:10:25;6.30;;;2.85;;
74945;SDS011;63509;45.250;38.102;2023-07-08T00:12:53;4.68;;;2.55;;
74945;SDS011;63509;45.250;38.102;2023-07-08T00:15:21;5.70;;;2.15;;
74945;SDS011;63509;45.250;38.102;2023-07-08T00:17:50;3.33;;;1.58;;
74945;SDS011;63509;45.250;38.102;2023-07-08T00:20:18;3.88;;;2.25;;
74945;SDS011;63509;45.250;38.102;2023-07-08T00:22:47;11.35;;;1.75;;
74945;SDS011;63509;45.250;38.102;2023-07-08T00:27:41;2.42;;;1.30;;
74945;SDS011;63509;45.250;38.102;2023-07-08T00:30:27;3.58;;;1.50;;
74945;SDS011;63509;45.250;38.102;2023-07-08T00:32:57;15.13;;;1.40;;
74945;SDS011;63509;45.250;38.102;2023-07-08T00:35:32;3.47;;;2.22;;
74945;SDS011;63509;45.250;38.102;2023-07-08T00:37:58;2.78;;;1.08;;
74945;SDS011;63509;45.250;38.102;2023-07-08T00:40:29;12.43;;;2.92;;
74945;SDS011;63509;45.250;38.102;2023-07-08T00:42:58;4.57;;;1.85;;
74945;SDS011;63509;45.250;38.102;2023-07-08T00:47:56;13.18;;;1.60;;
74945;SDS011;63509;45.250;38.102;2023-07-08T00:50:30;8.27;;;1.55;;
74945;SDS011;63509;45.250;38.102;2023-07-08T00:55:52;2.83;;;1.52;;
74945;SDS011;63509;45.250;38.102;2023-07-08T00:58:23;2.40;;;1.42;;
74945;SDS011;63509;45.250;38.102;2023-07-08T01:00:52;2.45;;;1.20;;
74945;SDS011;63509;45.250;38.102;2023-07-08T01:03:22;3.05;;;1.00;;
74945;SDS011;63509;45.250;38.102;2023-07-08T01:05:49;2.17;;;1.20;;
74945;SDS011;63509;45.250;38.102;2023-07-08T01:08:17;3.00;;;1.48;;
74945;SDS011;63509;45.250;38.102;2023-07-08T01:10:48;2.72;;;1.45;;
74945;SDS011;63509;45.250;38.102;2023-07-08T01:13:18;3.05;;;1.63;;
74945;SDS011;63509;45.250;38.102;2023-07-08T01:15:46;2.30;;;1.23;;
74945;SDS011;63509;45.250;38.102;2023-07-08T01:18:15;1.20;;;0.85;;
74945;SDS011;63509;45.250;38.102;2023-07-08T01:20:43;3.97;;;1.60;;
74945;SDS011;63509;45.250;38.102;2023-07-08T01:23:10;2.28;;;1.40;;
74945;SDS011;63509;45.250;38.102;2023-07-08T01:25:36;5.15;;;1.83;;
74945;SDS011;63509;45.250;38.102;2023-07-08T01:28:03;3.95;;;2.20;;
74945;SDS011;63509;45.250;38.102;2023-07-08T01:30:30;2.95;;;1.55;;
74945;SDS011;63509;45.250;38.102;2023-07-08T01:32:57;3.13;;;1.77;;
74945;SDS011;63509;45.250;38.102;2023-07-08T01:35:30;2.33;;;1.38;;
74945;SDS011;63509;45.250;38.102;2023-07-08T01:38:00;2.15;;;1.30;;
74945;SDS011;63509;45.250;38.102;2023-07-08T01:40:29;8.55;;;1.52;;
74945;SDS011;63509;45.250;38.102;2023-07-08T01:42:57;4.40;;;1.90;;
74945;SDS011;63509;45.250;38.102;2023-07-08T01:45:25;3.38;;;2.05;;
74945;SDS011;63509;45.250;38.102;2023-07-08T01:48:11;3.20;;;1.33;;
74945;SDS011;63509;45.250;38.102;2023-07-08T01:50:45;4.32;;;1.67;;
74945;SDS011;63509;45.250;38.102;2023-07-08T01:53:27;2.35;;;1.33;;
74945;SDS011;63509;45.250;38.102;2023-07-08T01:55:58;1.70;;;1.17;;
74945;SDS011;63509;45.250;38.102;2023-07-08T01:58:25;2.67;;;1.60;;
74945;SDS011;63509;45.250;38.102;2023-07-08T02:00:52;3.85;;;1.50;;
74945;SDS011;63509;45.250;38.102;2023-07-08T02:03:19;2.53;;;1.58;;
74945;SDS011;63509;45.250;38.102;2023-07-08T02:05:46;3.00;;;1.88;;
74945;SDS011;63509;45.250;38.102;2023-07-08T02:08:13;3.83;;;2.00;;
74945;SDS011;63509;45.250;38.102;2023-07-08T02:10:39;2.92;;;1.25;;
74945;SDS011;63509;45.250;38.102;2023-07-08T02:13:06;3.03;;;1.50;;
74945;SDS011;63509;45.250;38.102;2023-07-08T02:15:33;2.10;;;1.45;;
74945;SDS011;63509;45.250;38.102;2023-07-08T02:17:59;2.13;;;0.95;;
74945;SDS011;63509;45.250;38.102;2023-07-08T02:20:25;3.10;;;1.58;;
74945;SDS011;63509;45.250;38.102;2023-07-08T02:22:52;3.45;;;1.70;;
74945;SDS011;63509;45.250;38.102;2023-07-08T02:25:18;1.98;;;1.20;;
74945;SDS011;63509;45.250;38.102;2023-07-08T02:27:44;3.50;;;1.77;;
74945;SDS011;63509;45.250;38.102;2023-07-08T02:30:10;1.83;;;1.20;;
74945;SDS011;63509;45.250;38.102;2023-07-08T02:32:38;2.67;;;2.00;;
74945;SDS011;63509;45.250;38.102;2023-07-08T02:35:06;2.50;;;1.25;;
74945;SDS011;63509;45.250;38.102;2023-07-08T02:39:59;3.55;;;1.98;;
74945;SDS011;63509;45.250;38.102;2023-07-08T02:42:26;3.25;;;1.73;;
74945;SDS011;63509;45.250;38.102;2023-07-08T02:44:52;2.33;;;1.30;;
74945;SDS011;63509;45.250;38.102;2023-07-08T02:47:20;2.28;;;1.45;;
74945;SDS011;63509;45.250;38.102;2023-07-08T02:49:46;2.58;;;1.65;;
74945;SDS011;63509;45.250;38.102;2023-07-08T02:52:12;2.22;;;1.15;;
74945;SDS011;63509;45.250;38.102;2023-07-08T02:54:38;5.97;;;2.13;;
74945;SDS011;63509;45.250;38.102;2023-07-08T02:57:04;2.72;;;1.70;;
74945;SDS011;63509;45.250;38.102;2023-07-08T02:59:30;2.67;;;1.80;;
74945;SDS011;63509;45.250;38.102;2023-07-08T03:01:56;8.63;;;2.17;;
74945;SDS011;63509;45.250;38.102;2023-07-08T03:04:22;4.72;;;2.13;;
74945;SDS011;63509;45.250;38.102;2023-07-08T03:06:51;2.33;;;1.55;;
74945;SDS011;63509;45.250;38.102;2023-07-08T03:09:17;19.98;;;1.67;;
74945;SDS011;63509;45.250;38.102;2023-07-08T03:11:43;2.85;;;1.40;;
74945;SDS011;63509;45.250;38.102;2023-07-08T03:14:09;1.50;;;1.02;;
74945;SDS011;63509;45.250;38.102;2023-07-08T03:16:36;7.15;;;1.65;;
74945;SDS011;63509;45.250;38.102;2023-07-08T03:19:02;3.55;;;2.00;;
74945;SDS011;63509;45.250;38.102;2023-07-08T03:21:28;6.13;;;1.67;;
74945;SDS011;63509;45.250;38.102;2023-07-08T03:23:54;5.45;;;2.58;;
74945;SDS011;63509;45.250;38.102;2023-07-08T03:26:23;4.28;;;1.98;;
74945;SDS011;63509;45.250;38.102;2023-07-08T03:28:51;3.75;;;1.23;;
74945;SDS011;63509;45.250;38.102;2023-07-08T03:31:19;4.53;;;2.22;;
74945;SDS011;63509;45.250;38.102;2023-07-08T03:33:45;4.25;;;1.40;;
74945;SDS011;63509;45.250;38.102;2023-07-08T03:36:15;2.28;;;1.40;;
74945;SDS011;63509;45.250;38.102;2023-07-08T03:38:50;4.72;;;1.55;;
74945;SDS011;63509;45.250;38.102;2023-07-08T03:41:17;2.15;;;1.52;;
74945;SDS011;63509;45.250;38.102;2023-07-08T03:43:43;2.78;;;1.67;;
74945;SDS011;63509;45.250;38.102;2023-07-08T03:46:11;3.08;;;1.65;;
74945;SDS011;63509;45.250;38.102;2023-07-08T03:48:38;4.07;;;2.42;;
74945;SDS011;63509;45.250;38.102;2023-07-08T03:51:14;3.80;;;1.83;;
74945;SDS011;63509;45.250;38.102;2023-07-08T03:53:47;6.07;;;1.80;;
74945;SDS011;63509;45.250;38.102;2023-07-08T03:56:13;4.60;;;2.63;;
74945;SDS011;63509;45.250;38.102;2023-07-08T03:58:40;5.45;;;2.03;;
74945;SDS011;63509;45.250;38.102;2023-07-08T04:01:19;8.23;;;2.90;;
74945;SDS011;63509;45.250;38.102;2023-07-08T04:03:52;2.67;;;1.25;;
74945;SDS011;63509;45.250;38.102;2023-07-08T04:06:20;2.17;;;1.55;;
74945;SDS011;63509;45.250;38.102;2023-07-08T04:08:46;10.63;;;2.25;;
74945;SDS011;63509;45.250;38.102;2023-07-08T04:11:19;3.78;;;1.65;;
74945;SDS011;63509;45.250;38.102;2023-07-08T04:13:46;2.13;;;1.35;;
74945;SDS011;63509;45.250;38.102;2023-07-08T04:16:17;4.03;;;1.67;;
74945;SDS011;63509;45.250;38.102;2023-07-08T04:18:47;4.15;;;2.15;;
74945;SDS011;63509;45.250;38.102;2023-07-08T04:21:16;4.97;;;2.00;;
74945;SDS011;63509;45.250;38.102;2023-07-08T04:23:43;2.85;;;1.73;;
74945;SDS011;63509;45.250;38.102;2023-07-08T04:26:09;3.83;;;1.80;;
74945;SDS011;63509;45.250;38.102;2023-07-08T04:28:36;3.92;;;1.73;;
74945;SDS011;63509;45.250;38.102;2023-07-08T04:31:02;3.53;;;2.17;;
74945;SDS011;63509;45.250;38.102;2023-07-08T04:33:29;4.20;;;2.20;;
74945;SDS011;63509;45.250;38.102;2023-07-08T04:35:56;10.13;;;2.15;;
74945;SDS011;63509;45.250;38.102;2023-07-08T04:38:23;3.15;;;1.80;;
74945;SDS011;63509;45.250;38.102;2023-07-08T04:40:50;4.35;;;2.53;;
74945;SDS011;63509;45.250;38.102;2023-07-08T04:43:17;3.88;;;2.15;;
74945;SDS011;63509;45.250;38.102;2023-07-08T04:45:45;5.28;;;1.83;;
74945;SDS011;63509;45.250;38.102;2023-07-08T04:48:17;3.17;;;2.00;;
74945;SDS011;63509;45.250;38.102;2023-07-08T04:50:47;3.90;;;1.55;;
74945;SDS011;63509;45.250;38.102;2023-07-08T04:53:15;3.80;;;1.33;;
74945;SDS011;63509;45.250;38.102;2023-07-08T04:55:42;2.08;;;1.23;;
74945;SDS011;63509;45.250;38.102;2023-07-08T04:58:21;3.60;;;2.35;;
74945;SDS011;63509;45.250;38.102;2023-07-08T05:00:48;11.02;;;2.70;;
74945;SDS011;63509;45.250;38.102;2023-07-08T05:03:14;5.78;;;2.00;;
74945;SDS011;63509;45.250;38.102;2023-07-08T05:05:40;6.10;;;2.55;;
74945;SDS011;63509;45.250;38.102;2023-07-08T05:08:07;5.05;;;1.50;;
74945;SDS011;63509;45.250;38.102;2023-07-08T05:10:33;3.90;;;1.75;;
74945;SDS011;63509;45.250;38.102;2023-07-08T05:13:00;8.95;;;1.70;;
74945;SDS011;63509;45.250;38.102;2023-07-08T05:15:26;3.83;;;1.85;;
74945;SDS011;63509;45.250;38.102;2023-07-08T05:17:52;12.38;;;1.73;;
74945;SDS011;63509;45.250;38.102;2023-07-08T05:20:18;3.95;;;1.90;;
74945;SDS011;63509;45.250;38.102;2023-07-08T05:22:45;6.03;;;1.90;;
74945;SDS011;63509;45.250;38.102;2023-07-08T05:25:12;4.85;;;1.95;;
74945;SDS011;63509;45.250;38.102;2023-07-08T05:27:39;9.43;;;1.98;;
74945;SDS011;63509;45.250;38.102;2023-07-08T05:30:06;4.82;;;2.20;;
74945;SDS011;63509;45.250;38.102;2023-07-08T05:32:34;6.05;;;2.33;;
74945;SDS011;63509;45.250;38.102;2023-07-08T05:35:00;4.18;;;2.47;;
74945;SDS011;63509;45.250;38.102;2023-07-08T05:37:26;5.45;;;2.90;;
74945;SDS011;63509;45.250;38.102;2023-07-08T05:39:54;4.43;;;2.03;;
74945;SDS011;63509;45.250;38.102;2023-07-08T05:42:21;12.40;;;2.67;;
74945;SDS011;63509;45.250;38.102;2023-07-08T05:44:47;4.45;;;2.25;;
74945;SDS011;63509;45.250;38.102;2023-07-08T05:47:14;4.40;;;1.95;;
74945;SDS011;63509;45.250;38.102;2023-07-08T05:49:40;5.03;;;2.67;;
74945;SDS011;63509;45.250;38.102;2023-07-08T05:52:07;9.90;;;2.28;;
74945;SDS011;63509;45.250;38.102;2023-07-08T05:54:37;8.98;;;2.03;;
74945;SDS011;63509;45.250;38.102;2023-07-08T05:57:04;4.78;;;2.17;;
74945;SDS011;63509;45.250;38.102;2023-07-08T05:59:31;10.40;;;2.13;;
74945;SDS011;63509;45.250;38.102;2023-07-08T06:01:58;2.78;;;1.02;;
74945;SDS011;63509;45.250;38.102;2023-07-08T06:04:24;1.67;;;0.80;;
74945;SDS011;63509;45.250;38.102;2023-07-08T06:06:50;11.38;;;1.85;;
74945;SDS011;63509;45.250;38.102;2023-07-08T06:09:16;1.60;;;0.60;;
74945;SDS011;63509;45.250;38.102;2023-07-08T06:11:42;7.03;;;1.20;;
74945;SDS011;63509;45.250;38.102;2023-07-08T06:14:08;1.50;;;0.70;;
74945;SDS011;63509;45.250;38.102;2023-07-08T06:16:34;3.55;;;1.27;;
74945;SDS011;63509;45.250;38.102;2023-07-08T06:19:00;2.88;;;1.05;;
74945;SDS011;63509;45.250;38.102;2023-07-08T06:21:26;4.00;;;1.35;;
74945;SDS011;63509;45.250;38.102;2023-07-08T06:23:53;3.65;;;1.17;;
74945;SDS011;63509;45.250;38.102;2023-07-08T06:26:19;5.15;;;0.88;;
74945;SDS011;63509;45.250;38.102;2023-07-08T06:28:45;3.45;;;1.20;;
74945;SDS011;63509;45.250;38.102;2023-07-08T06:31:11;1.65;;;0.90;;
74945;SDS011;63509;45.250;38.102;2023-07-08T06:33:37;1.50;;;0.68;;
74945;SDS011;63509;45.250;38.102;2023-07-08T06:36:03;1.85;;;0.77;;
74945;SDS011;63509;45.250;38.102;2023-07-08T06:38:30;7.07;;;1.17;;
74945;SDS011;63509;45.250;38.102;2023-07-08T06:40:55;2.55;;;1.10;;
74945;SDS011;63509;45.250;38.102;2023-07-08T06:43:21;1.58;;;0.77;;
74945;SDS011;63509;45.250;38.102;2023-07-08T06:46:08;10.18;;;1.20;;
74945;SDS011;63509;45.250;38.102;2023-07-08T06:48:34;2.13;;;1.13;;
74945;SDS011;63509;45.250;38.102;2023-07-08T06:51:00;2.10;;;1.10;;
74945;SDS011;63509;45.250;38.102;2023-07-08T06:53:26;5.93;;;1.20;;
74945;SDS011;63509;45.250;38.102;2023-07-08T06:55:52;2.63;;;1.10;;
74945;SDS011;63509;45.250;38.102;2023-07-08T06:58:18;3.33;;;1.20;;
74945;SDS011;63509;45.250;38.102;2023-07-08T07:00:44;2.42;;;0.88;;
74945;SDS011;63509;45.250;38.102;2023-07-08T07:03:10;11.73;;;2.55;;
74945;SDS011;63509;45.250;38.102;2023-07-08T07:05:37;2.25;;;0.93;;
74945;SDS011;63509;45.250;38.102;2023-07-08T07:08:04;2.05;;;1.02;;
74945;SDS011;63509;45.250;38.102;2023-07-08T07:10:30;2.58;;;0.85;;
74945;SDS011;63509;45.250;38.102;2023-07-08T07:12:56;1.77;;;0.80;;
74945;SDS011;63509;45.250;38.102;2023-07-08T07:15:22;2.05;;;0.85;;
74945;SDS011;63509;45.250;38.102;2023-07-08T07:20:16;1.80;;;1.00;;
74945;SDS011;63509;45.250;38.102;2023-07-08T07:22:42;1.92;;;0.80;;
74945;SDS011;63509;45.250;38.102;2023-07-08T07:25:08;2.00;;;1.05;;
74945;SDS011;63509;45.250;38.102;2023-07-08T07:27:35;2.47;;;1.02;;
74945;SDS011;63509;45.250;38.102;2023-07-08T07:30:01;3.97;;;2.22;;
74945;SDS011;63509;45.250;38.102;2023-07-08T07:32:27;5.65;;;1.63;;
74945;SDS011;63509;45.250;38.102;2023-07-08T07:34:54;2.30;;;0.90;;
74945;SDS011;63509;45.250;38.102;2023-07-08T07:37:22;9.77;;;2.22;;
74945;SDS011;63509;45.250;38.102;2023-07-08T07:39:48;4.38;;;1.23;;
74945;SDS011;63509;45.250;38.102;2023-07-08T07:42:15;1.70;;;0.80;;
74945;SDS011;63509;45.250;38.102;2023-07-08T07:44:42;3.35;;;1.67;;
74945;SDS011;63509;45.250;38.102;2023-07-08T07:47:08;1.70;;;0.75;;
74945;SDS011;63509;45.250;38.102;2023-07-08T07:49:35;2.88;;;1.05;;
74945;SDS011;63509;45.250;38.102;2023-07-08T07:52:02;2.42;;;1.00;;
74945;SDS011;63509;45.250;38.102;2023-07-08T07:54:28;4.82;;;1.10;;
74945;SDS011;63509;45.250;38.102;2023-07-08T07:56:54;4.13;;;0.73;;
74945;SDS011;63509;45.250;38.102;2023-07-08T07:59:20;4.50;;;0.80;;
74945;SDS011;63509;45.250;38.102;2023-07-08T08:01:46;2.78;;;1.13;;
74945;SDS011;63509;45.250;38.102;2023-07-08T08:04:13;1.33;;;0.70;;
74945;SDS011;63509;45.250;38.102;2023-07-08T08:06:39;3.08;;;0.85;;
74945;SDS011;63509;45.250;38.102;2023-07-08T08:09:05;2.80;;;1.25;;
74945;SDS011;63509;45.250;38.102;2023-07-08T08:11:32;1.27;;;0.55;;
74945;SDS011;63509;45.250;38.102;2023-07-08T08:13:59;1.50;;;0.60;;
74945;SDS011;63509;45.250;38.102;2023-07-08T08:16:26;1.65;;;0.73;;
74945;SDS011;63509;45.250;38.102;2023-07-08T08:18:52;2.70;;;0.80;;
74945;SDS011;63509;45.250;38.102;2023-07-08T08:21:18;1.38;;;0.55;;
74945;SDS011;63509;45.250;38.102;2023-07-08T08:23:44;3.97;;;0.82;;
74945;SDS011;63509;45.250;38.102;2023-07-08T08:26:10;2.53;;;0.60;;
74945;SDS011;63509;45.250;38.102;2023-07-08T08:28:36;2.50;;;1.13;;
74945;SDS011;63509;45.250;38.102;2023-07-08T08:31:02;4.78;;;0.70;;
74945;SDS011;63509;45.250;38.102;2023-07-08T08:33:28;3.40;;;1.40;;
74945;SDS011;63509;45.250;38.102;2023-07-08T08:35:54;1.48;;;0.70;;
74945;SDS011;63509;45.250;38.102;2023-07-08T08:38:20;4.45;;;0.77;;
74945;SDS011;63509;45.250;38.102;2023-07-08T08:40:46;2.05;;;0.77;;
74945;SDS011;63509;45.250;38.102;2023-07-08T08:43:14;4.35;;;1.20;;
74945;SDS011;63509;45.250;38.102;2023-07-08T08:45:58;2.75;;;0.40;;
74945;SDS011;63509;45.250;38.102;2023-07-08T08:48:30;4.40;;;0.90;;
74945;SDS011;63509;45.250;38.102;2023-07-08T08:51:14;1.90;;;0.60;;
74945;SDS011;63509;45.250;38.102;2023-07-08T08:56:21;5.15;;;0.60;;
74945;SDS011;63509;45.250;38.102;2023-07-08T09:01:56;1.65;;;0.82;;
74945;SDS011;63509;45.250;38.102;2023-07-08T09:04:27;3.53;;;0.70;;
74945;SDS011;63509;45.250;38.102;2023-07-08T09:07:06;4.82;;;1.15;;
74945;SDS011;63509;45.250;38.102;2023-07-08T09:12:56;1.73;;;0.85;;
74945;SDS011;63509;45.250;38.102;2023-07-08T09:15:25;2.45;;;1.25;;
74945;SDS011;63509;45.250;38.102;2023-07-08T09:17:52;1.67;;;0.80;;
74945;SDS011;63509;45.250;38.102;2023-07-08T09:20:24;1.95;;;0.68;;
74945;SDS011;63509;45.250;38.102;2023-07-08T09:25:41;4.65;;;1.00;;
74945;SDS011;63509;45.250;38.102;2023-07-08T09:28:13;10.45;;;1.17;;
74945;SDS011;63509;45.250;38.102;2023-07-08T09:30:39;6.95;;;1.20;;
74945;SDS011;63509;45.250;38.102;2023-07-08T09:33:07;3.30;;;1.30;;
74945;SDS011;63509;45.250;38.102;2023-07-08T09:35:39;13.82;;;1.38;;
74945;SDS011;63509;45.250;38.102;2023-07-08T09:38:15;6.28;;;1.63;;
74945;SDS011;63509;45.250;38.102;2023-07-08T09:40:49;5.38;;;1.50;;
74945;SDS011;63509;45.250;38.102;2023-07-08T09:43:26;16.20;;;2.28;;
74945;SDS011;63509;45.250;38.102;2023-07-08T09:46:01;7.90;;;1.42;;
74945;SDS011;63509;45.250;38.102;2023-07-08T09:48:29;6.70;;;1.02;;
74945;SDS011;63509;45.250;38.102;2023-07-08T09:50:59;2.38;;;1.10;;
74945;SDS011;63509;45.250;38.102;2023-07-08T09:53:25;7.35;;;1.35;;
74945;SDS011;63509;45.250;38.102;2023-07-08T09:55:52;3.53;;;1.83;;
74945;SDS011;63509;45.250;38.102;2023-07-08T09:58:42;6.47;;;2.95;;
74945;SDS011;63509;45.250;38.102;2023-07-08T10:01:14;5.10;;;1.77;;
74945;SDS011;63509;45.250;38.102;2023-07-08T10:03:48;2.47;;;1.38;;
74945;SDS011;63509;45.250;38.102;2023-07-08T10:06:22;7.00;;;1.35;;
74945;SDS011;63509;45.250;38.102;2023-07-08T10:08:59;0.80;;;0.40;;
74945;SDS011;63509;45.250;38.102;2023-07-08T10:14:39;1.88;;;0.63;;
74945;SDS011;63509;45.250;38.102;2023-07-08T10:17:04;3.40;;;0.50;;
74945;SDS011;63509;45.250;38.102;2023-07-08T10:19:31;0.70;;;0.32;;
74945;SDS011;63509;45.250;38.102;2023-07-08T10:24:42;5.93;;;1.42;;
74945;SDS011;63509;45.250;38.102;2023-07-08T10:30:20;4.18;;;0.82;;
74945;SDS011;63509;45.250;38.102;2023-07-08T10:35:49;4.93;;;1.52;;
74945;SDS011;63509;45.250;38.102;2023-07-08T10:38:43;3.92;;;1.05;;
74945;SDS011;63509;45.250;38.102;2023-07-08T10:41:35;1.30;;;0.70;;
74945;SDS011;63509;45.250;38.102;2023-07-08T10:44:28;0.57;;;0.30;;
74945;SDS011;63509;45.250;38.102;2023-07-08T10:49:50;0.20;;;0.20;;
74945;SDS011;63509;45.250;38.102;2023-07-08T10:52:43;0.30;;;0.15;;
74945;SDS011;63509;45.250;38.102;2023-07-08T10:58:07;0.88;;;0.40;;
74945;SDS011;63509;45.250;38.102;2023-07-08T11:00:45;1.48;;;0.28;;
74945;SDS011;63509;45.250;38.102;2023-07-08T11:03:31;0.80;;;0.30;;
74945;SDS011;63509;45.250;38.102;2023-07-08T11:06:10;1.05;;;0.70;;
74945;SDS011;63509;45.250;38.102;2023-07-08T11:08:44;1.00;;;0.60;;
74945;SDS011;63509;45.250;38.102;2023-07-08T11:13:47;0.52;;;0.40;;
74945;SDS011;63509;45.250;38.102;2023-07-08T11:16:24;1.55;;;0.70;;
74945;SDS011;63509;45.250;38.102;2023-07-08T11:18:58;0.00;;;0.00;;
74945;SDS011;63509;45.250;38.102;2023-07-08T11:21:47;0.43;;;0.30;;
74945;SDS011;63509;45.250;38.102;2023-07-08T11:26:46;1.40;;;0.60;;
74945;SDS011;63509;45.250;38.102;2023-07-08T11:29:24;13.60;;;1.08;;
74945;SDS011;63509;45.250;38.102;2023-07-08T11:31:54;1.15;;;0.65;;
74945;SDS011;63509;45.250;38.102;2023-07-08T11:34:22;2.22;;;0.40;;
74945;SDS011;63509;45.250;38.102;2023-07-08T11:36:49;0.73;;;0.50;;
74945;SDS011;63509;45.250;38.102;2023-07-08T11:39:33;0.65;;;0.30;;
74945;SDS011;63509;45.250;38.102;2023-07-08T11:42:05;0.32;;;0.20;;
74945;SDS011;63509;45.250;38.102;2023-07-08T11:44:43;1.40;;;0.60;;
74945;SDS011;63509;45.250;38.102;2023-07-08T11:47:15;1.50;;;0.75;;
74945;SDS011;63509;45.250;38.102;2023-07-08T11:49:45;1.33;;;0.57;;
74945;SDS011;63509;45.250;38.102;2023-07-08T11:52:15;2.60;;;1.38;;
74945;SDS011;63509;45.250;38.102;2023-07-08T11:54:45;8.20;;;0.93;;
74945;SDS011;63509;45.250;38.102;2023-07-08T11:57:16;1.77;;;1.00;;
74945;SDS011;63509;45.250;38.102;2023-07-08T11:59:45;1.23;;;0.40;;
74945;SDS011;63509;45.250;38.102;2023-07-08T12:07:39;1.80;;;1.00;;
74945;SDS011;63509;45.250;38.102;2023-07-08T12:10:11;1.00;;;0.65;;
74945;SDS011;63509;45.250;38.102;2023-07-08T12:12:48;2.67;;;1.15;;
74945;SDS011;63509;45.250;38.102;2023-07-08T12:15:17;2.38;;;1.38;;
74945;SDS011;63509;45.250;38.102;2023-07-08T12:17:53;4.30;;;1.33;;
74945;SDS011;63509;45.250;38.102;2023-07-08T12:20:38;2.90;;;1.15;;
74945;SDS011;63509;45.250;38.102;2023-07-08T12:23:12;4.38;;;1.63;;
74945;SDS011;63509;45.250;38.102;2023-07-08T12:25:40;3.45;;;1.08;;
74945;SDS011;63509;45.250;38.102;2023-07-08T12:39:16;5.47;;;0.75;;
74945;SDS011;63509;45.250;38.102;2023-07-08T12:41:43;1.15;;;0.47;;
74945;SDS011;63509;45.250;38.102;2023-07-08T12:44:18;1.52;;;0.70;;
74945;SDS011;63509;45.250;38.102;2023-07-08T12:46:51;6.78;;;1.50;;
74945;SDS011;63509;45.250;38.102;2023-07-08T12:49:19;8.02;;;0.73;;
74945;SDS011;63509;45.250;38.102;2023-07-08T12:51:46;3.13;;;0.98;;
74945;SDS011;63509;45.250;38.102;2023-07-08T12:54:13;0.80;;;0.50;;
74945;SDS011;63509;45.250;38.102;2023-07-08T12:56:40;2.53;;;0.88;;
74945;SDS011;63509;45.250;38.102;2023-07-08T12:59:10;1.92;;;0.90;;
74945;SDS011;63509;45.250;38.102;2023-07-08T13:01:41;2.33;;;0.90;;
74945;SDS011;63509;45.250;38.102;2023-07-08T13:04:10;1.27;;;0.75;;
74945;SDS011;63509;45.250;38.102;2023-07-08T13:06:38;3.22;;;0.65;;
74945;SDS011;63509;45.250;38.102;2023-07-08T13:11:44;1.00;;;0.60;;
74945;SDS011;63509;45.250;38.102;2023-07-08T13:14:11;6.60;;;1.60;;
74945;SDS011;63509;45.250;38.102;2023-07-08T13:16:39;1.83;;;0.77;;
74945;SDS011;63509;45.250;38.102;2023-07-08T13:19:06;1.58;;;0.68;;
74945;SDS011;63509;45.250;38.102;2023-07-08T13:21:37;5.57;;;1.63;;
74945;SDS011;63509;45.250;38.102;2023-07-08T13:24:07;10.95;;;0.65;;
74945;SDS011;63509;45.250;38.102;2023-07-08T13:26:37;1.52;;;0.82;;
74945;SDS011;63509;45.250;38.102;2023-07-08T13:29:06;3.72;;;1.23;;
74945;SDS011;63509;45.250;38.102;2023-07-08T13:31:39;1.48;;;0.65;;
74945;SDS011;63509;45.250;38.102;2023-07-08T13:34:15;1.50;;;0.80;;
74945;SDS011;63509;45.250;38.102;2023-07-08T13:36:45;3.03;;;1.15;;
74945;SDS011;63509;45.250;38.102;2023-07-08T13:39:35;0.77;;;0.40;;
74945;SDS011;63509;45.250;38.102;2023-07-08T13:42:02;1.70;;;0.85;;
74945;SDS011;63509;45.250;38.102;2023-07-08T13:44:29;9.75;;;1.65;;
74945;SDS011;63509;45.250;38.102;2023-07-08T13:46:57;4.35;;;0.45;;
74945;SDS011;63509;45.250;38.102;2023-07-08T13:49:38;17.85;;;1.17;;
74945;SDS011;63509;45.250;38.102;2023-07-08T13:55:20;0.52;;;0.30;;
74945;SDS011;63509;45.250;38.102;2023-07-08T13:57:33;1.27;;;0.63;;
74945;SDS011;63509;45.250;38.102;2023-07-08T14:00:03;2.05;;;1.05;;
74945;SDS011;63509;45.250;38.102;2023-07-08T14:05:05;1.50;;;0.73;;
74945;SDS011;63509;45.250;38.102;2023-07-08T14:07:36;6.45;;;1.40;;
74945;SDS011;63509;45.250;38.102;2023-07-08T14:10:04;1.70;;;1.08;;
74945;SDS011;63509;45.250;38.102;2023-07-08T14:12:36;3.35;;;0.70;;
74945;SDS011;63509;45.250;38.102;2023-07-08T14:15:02;1.75;;;0.70;;
74945;SDS011;63509;45.250;38.102;2023-07-08T14:17:29;1.92;;;0.90;;
74945;SDS011;63509;45.250;38.102;2023-07-08T14:19:55;1.23;;;0.63;;
74945;SDS011;63509;45.250;38.102;2023-07-08T14:22:23;2.50;;;1.60;;
74945;SDS011;63509;45.250;38.102;2023-07-08T14:24:51;3.20;;;0.88;;
74945;SDS011;63509;45.250;38.102;2023-07-08T14:27:17;4.20;;;1.48;;
74945;SDS011;63509;45.250;38.102;2023-07-08T14:29:47;10.55;;;1.30;;
74945;SDS011;63509;45.250;38.102;2023-07-08T14:32:20;5.05;;;0.65;;
74945;SDS011;63509;45.250;38.102;2023-07-08T14:34:54;2.15;;;0.73;;
74945;SDS011;63509;45.250;38.102;2023-07-08T14:37:41;2.95;;;0.82;;
74945;SDS011;63509;45.250;38.102;2023-07-08T14:40:18;3.42;;;0.80;;
74945;SDS011;63509;45.250;38.102;2023-07-08T14:43:04;1.70;;;1.00;;
74945;SDS011;63509;45.250;38.102;2023-07-08T14:45:39;1.13;;;0.57;;
74945;SDS011;63509;45.250;38.102;2023-07-08T14:48:12;3.15;;;1.17;;
74945;SDS011;63509;45.250;38.102;2023-07-08T14:50:38;6.35;;;1.48;;
74945;SDS011;63509;45.250;38.102;2023-07-08T14:53:05;0.90;;;0.47;;
74945;SDS011;63509;45.250;38.102;2023-07-08T14:55:32;1.65;;;0.90;;
74945;SDS011;63509;45.250;38.102;2023-07-08T14:57:59;3.15;;;0.65;;
74945;SDS011;63509;45.250;38.102;2023-07-08T15:00:26;4.38;;;1.20;;
74945;SDS011;63509;45.250;38.102;2023-07-08T15:02:52;1.55;;;0.85;;
74945;SDS011;63509;45.250;38.102;2023-07-08T15:05:20;1.63;;;0.63;;
74945;SDS011;63509;45.250;38.102;2023-07-08T15:07:51;1.15;;;0.70;;
74945;SDS011;63509;45.250;38.102;2023-07-08T15:10:18;1.80;;;0.90;;
74945;SDS011;63509;45.250;38.102;2023-07-08T15:12:47;2.70;;;1.33;;
74945;SDS011;63509;45.250;38.102;2023-07-08T15:15:15;6.22;;;0.70;;
74945;SDS011;63509;45.250;38.102;2023-07-08T15:18:02;2.10;;;1.15;;
74945;SDS011;63509;45.250;38.102;2023-07-08T15:20:36;2.38;;;1.08;;
74945;SDS011;63509;45.250;38.102;2023-07-08T15:23:02;1.52;;;0.75;;
74945;SDS011;63509;45.250;38.102;2023-07-08T15:25:28;5.13;;;0.93;;
74945;SDS011;63509;45.250;38.102;2023-07-08T15:27:55;1.02;;;0.40;;
74945;SDS011;63509;45.250;38.102;2023-07-08T15:30:26;3.33;;;1.65;;
74945;SDS011;63509;45.250;38.102;2023-07-08T15:32:53;6.22;;;1.42;;
74945;SDS011;63509;45.250;38.102;2023-07-08T15:35:21;1.08;;;0.75;;
74945;SDS011;63509;45.250;38.102;2023-07-08T15:37:51;3.40;;;1.05;;
74945;SDS011;63509;45.250;38.102;2023-07-08T15:40:18;2.95;;;1.17;;
74945;SDS011;63509;45.250;38.102;2023-07-08T15:42:48;1.77;;;0.82;;
74945;SDS011;63509;45.250;38.102;2023-07-08T15:47:54;1.23;;;0.70;;
74945;SDS011;63509;45.250;38.102;2023-07-08T15:50:21;3.15;;;1.90;;
74945;SDS011;63509;45.250;38.102;2023-07-08T15:52:49;3.90;;;2.22;;
74945;SDS011;63509;45.250;38.102;2023-07-08T15:55:35;2.05;;;1.27;;
74945;SDS011;63509;45.250;38.102;2023-07-08T15:58:05;5.22;;;2.30;;
74945;SDS011;63509;45.250;38.102;2023-07-08T16:00:36;1.45;;;0.90;;